Time;durP1;ratioP1;P1;durP2;ratioP2;P2;SDS_P1;SDS_P2;PMS_P1;PMS_P2;Temp;Humidity;BMP_temperature;BMP_pressure;BME280_temperature;BME280_humidity;BME280_pressure;Samples;Min_cycle;Max_cycle;Signal;HPM_P1;HPM_P2
2021/04/23 00:01:45;;;;;;;32.28;5.22;;;6.10;99.90;;;;;;4989090;28;20030;-83
2021/04/23 00:04:11;;;;;;;36.50;4.95;;;6.00;99.90;;;;;;4982688;28;20034;-85
2021/04/23 00:06:40;;;;;;;40.72;5.70;;;5.90;99.90;;;;;;4993409;28;20085;-85
2021/04/23 00:09:13;;;;;;;23.85;4.72;;;5.90;99.90;;;;;;4993141;28;20109;-83
2021/04/23 00:11:41;;;;;;;38.65;5.18;;;5.80;99.90;;;;;;4992931;28;20022;-83
2021/04/23 00:14:08;;;;;;;41.88;4.43;;;5.80;99.90;;;;;;5008803;28;20100;-83
2021/04/23 00:16:35;;;;;;;40.97;5.55;;;5.80;99.90;;;;;;4989085;28;20027;-83
2021/04/23 00:19:00;;;;;;;46.85;5.88;;;5.80;99.90;;;;;;4974953;28;20031;-85
2021/04/23 00:21:26;;;;;;;39.28;5.30;;;5.80;99.90;;;;;;4973433;28;20034;-84
2021/04/23 00:23:52;;;;;;;54.00;5.65;;;5.80;99.90;;;;;;4989259;28;20031;-85
2021/04/23 00:26:19;;;;;;;36.60;5.03;;;5.80;99.90;;;;;;4992859;28;20034;-85
2021/04/23 00:28:45;;;;;;;32.63;3.97;;;5.80;99.90;;;;;;4992850;28;20027;-85
2021/04/23 00:31:11;;;;;;;33.92;5.03;;;5.70;99.90;;;;;;5008776;28;20026;-85
2021/04/23 00:33:37;;;;;;;32.58;6.78;;;5.70;99.90;;;;;;4992536;28;20029;-84
2021/04/23 00:36:05;;;;;;;30.50;4.65;;;5.60;99.90;;;;;;4993438;28;20486;-84
2021/04/23 00:38:31;;;;;;;21.83;4.15;;;5.60;99.90;;;;;;4993913;28;20503;-85
2021/04/23 00:41:09;;;;;;;27.83;4.75;;;5.60;99.90;;;;;;4993807;28;20070;-84
2021/04/23 00:43:38;;;;;;;42.10;6.90;;;5.50;99.90;;;;;;4976035;28;20034;-84
2021/04/23 00:46:05;;;;;;;29.80;4.60;;;5.40;99.90;;;;;;4972731;28;20023;-83
2021/04/23 00:48:39;;;;;;;29.25;5.05;;;5.40;99.90;;;;;;4993396;28;20026;-85
2021/04/23 00:51:10;;;;;;;29.75;5.70;;;5.40;99.90;;;;;;5008866;28;20509;-83
2021/04/23 00:53:39;;;;;;;22.58;4.82;;;5.30;99.90;;;;;;4993017;28;20486;-83
2021/04/23 00:56:08;;;;;;;32.20;5.10;;;5.30;99.90;;;;;;4992090;28;20076;-83
2021/04/23 00:58:35;;;;;;;32.65;4.82;;;5.20;99.90;;;;;;4992660;28;20386;-84
2021/04/23 01:01:07;;;;;;;35.20;5.22;;;5.20;99.90;;;;;;4993396;28;20104;-84
2021/04/23 01:03:34;;;;;;;44.75;5.78;;;5.20;99.90;;;;;;4999347;28;20038;-84
2021/04/23 01:06:04;;;;;;;29.85;4.75;;;5.10;99.90;;;;;;4991310;28;20030;-85
2021/04/23 01:08:29;;;;;;;37.75;4.68;;;5.10;99.90;;;;;;4991978;28;20054;-84
2021/04/23 01:11:01;;;;;;;34.00;6.13;;;5.00;99.90;;;;;;4993374;28;20025;-86
2021/04/23 01:13:31;;;;;;;41.13;4.88;;;5.10;99.90;;;;;;4992055;28;20019;-84
2021/04/23 01:16:08;;;;;;;31.98;4.60;;;5.00;99.90;;;;;;4972211;28;20038;-85
2021/04/23 01:18:34;;;;;;;50.15;6.05;;;5.00;99.90;;;;;;4972629;28;20035;-84
2021/04/23 01:21:07;;;;;;;37.70;4.90;;;5.00;99.90;;;;;;4972182;28;20461;-84
2021/04/23 01:23:34;;;;;;;24.60;6.57;;;5.00;99.90;;;;;;4973870;28;20652;-82
2021/04/23 01:26:00;;;;;;;42.08;5.28;;;5.00;99.90;;;;;;4971698;28;20035;-84
2021/04/23 01:28:28;;;;;;;32.17;5.70;;;5.00;99.90;;;;;;4973369;28;20026;-85
2021/04/23 01:30:54;;;;;;;26.75;4.85;;;5.00;99.90;;;;;;4973527;28;20106;-83
2021/04/23 01:33:19;;;;;;;33.83;5.45;;;4.90;99.90;;;;;;4991138;28;20130;-86
2021/04/23 01:35:45;;;;;;;43.10;5.70;;;5.00;99.90;;;;;;4977760;28;20031;-85
2021/04/23 01:38:11;;;;;;;44.67;5.10;;;4.90;99.90;;;;;;4972155;28;20442;-84
2021/04/23 01:40:36;;;;;;;44.63;5.18;;;4.90;99.90;;;;;;4973152;28;20026;-83
2021/04/23 01:43:03;;;;;;;38.20;5.55;;;4.90;99.90;;;;;;4985165;28;20105;-83
2021/04/23 01:45:29;;;;;;;52.55;7.45;;;4.90;99.90;;;;;;4992035;28;20030;-84
2021/04/23 01:47:55;;;;;;;38.75;5.65;;;4.80;99.90;;;;;;4987803;28;20505;-84
2021/04/23 01:50:21;;;;;;;31.77;5.20;;;4.80;99.90;;;;;;4971460;28;20114;-83
2021/04/23 01:52:49;;;;;;;37.80;5.70;;;4.80;99.90;;;;;;4987778;28;20158;-84
2021/04/23 01:55:18;;;;;;;40.17;5.35;;;4.80;99.90;;;;;;4970996;28;20026;-84
2021/04/23 01:57:44;;;;;;;42.22;5.68;;;4.70;99.90;;;;;;4972853;28;20380;-84
2021/04/23 02:00:15;;;;;;;28.63;5.15;;;4.70;99.90;;;;;;4973061;28;20077;-84
2021/04/23 02:02:41;;;;;;;25.77;4.95;;;4.70;99.90;;;;;;4983924;28;20026;-84
2021/04/23 02:05:08;;;;;;;35.75;6.05;;;4.60;99.90;;;;;;4989103;28;20030;-83
2021/04/23 02:07:33;;;;;;;45.20;5.68;;;4.50;99.90;;;;;;4989287;28;20033;-83
2021/04/23 02:10:00;;;;;;;52.08;8.10;;;4.50;99.90;;;;;;4991075;28;20590;-84
2021/04/23 02:12:26;;;;;;;36.05;5.22;;;4.50;99.90;;;;;;4992284;28;20054;-84
2021/04/23 02:14:51;;;;;;;33.08;5.55;;;4.50;99.90;;;;;;4991292;28;20030;-84
2021/04/23 02:17:17;;;;;;;49.58;6.50;;;4.50;99.90;;;;;;4987555;28;20506;-84
2021/04/23 02:19:43;;;;;;;36.15;5.22;;;4.50;99.90;;;;;;4973073;28;20521;-84
2021/04/23 02:22:09;;;;;;;47.55;5.82;;;4.50;99.90;;;;;;4971305;28;20070;-83
2021/04/23 02:24:35;;;;;;;63.85;7.22;;;4.50;99.90;;;;;;4972054;28;20026;-85
2021/04/23 02:27:01;;;;;;;50.30;6.88;;;4.50;99.90;;;;;;4975485;28;20027;-83
2021/04/23 02:29:26;;;;;;;63.20;6.90;;;4.40;99.90;;;;;;4987279;28;20027;-84
2021/04/23 02:31:54;;;;;;;55.97;6.70;;;4.40;99.90;;;;;;4973168;28;20034;-85
2021/04/23 02:34:23;;;;;;;60.47;7.07;;;4.40;99.90;;;;;;4971091;28;20026;-83
2021/04/23 02:36:48;;;;;;;42.17;4.45;;;4.40;99.90;;;;;;4971151;28;20479;-85
2021/04/23 02:39:16;;;;;;;54.30;7.13;;;4.40;99.90;;;;;;4991867;28;20110;-85
2021/04/23 02:41:47;;;;;;;51.15;7.13;;;4.40;99.90;;;;;;5007085;28;20038;-83
2021/04/23 02:44:13;;;;;;;56.40;8.07;;;4.40;99.90;;;;;;4991029;28;20050;-84
2021/04/23 02:46:40;;;;;;;52.22;6.82;;;4.40;99.90;;;;;;4986225;28;20409;-83
2021/04/23 02:49:07;;;;;;;56.55;7.40;;;4.40;99.90;;;;;;4971347;28;20030;-84
2021/04/23 02:51:38;;;;;;;51.42;6.10;;;4.40;99.90;;;;;;4972302;28;20023;-84
2021/04/23 02:54:05;;;;;;;46.92;6.15;;;4.50;99.90;;;;;;4971826;28;20030;-84
2021/04/23 02:56:31;;;;;;;56.10;7.22;;;4.40;99.90;;;;;;4972813;28;20050;-83
2021/04/23 02:58:57;;;;;;;63.38;7.28;;;4.40;99.90;;;;;;4990554;28;20022;-84
2021/04/23 03:01:27;;;;;;;58.45;7.40;;;4.40;99.90;;;;;;4992120;28;20085;-84
2021/04/23 03:03:53;;;;;;;49.63;6.63;;;4.30;99.90;;;;;;4994822;28;20026;-84
2021/04/23 03:06:19;;;;;;;57.05;7.78;;;4.30;99.90;;;;;;4994199;28;20022;-84
2021/04/23 03:08:45;;;;;;;51.88;7.95;;;4.30;99.90;;;;;;4994850;28;20022;-85
2021/04/23 03:11:12;;;;;;;45.78;5.80;;;4.30;99.90;;;;;;4994261;28;20019;-84
2021/04/23 03:13:41;;;;;;;39.25;6.45;;;4.30;99.90;;;;;;4993962;28;20487;-84
2021/04/23 03:16:08;;;;;;;59.83;6.82;;;4.30;99.90;;;;;;4993560;28;20037;-85
2021/04/23 03:18:36;;;;;;;61.90;8.15;;;4.30;99.90;;;;;;4994510;28;20025;-85
2021/04/23 03:21:04;;;;;;;67.68;8.43;;;4.30;99.90;;;;;;4995306;28;20027;-84
2021/04/23 03:23:30;;;;;;;71.13;8.38;;;4.30;99.90;;;;;;4995267;28;20533;-84
2021/04/23 03:25:59;;;;;;;50.22;7.60;;;4.30;99.90;;;;;;4993298;28;20599;-84
2021/04/23 03:28:24;;;;;;;59.97;8.45;;;4.40;99.90;;;;;;4990199;28;20027;-84
2021/04/23 03:30:50;;;;;;;65.10;8.30;;;4.40;99.90;;;;;;4975680;28;20372;-85
2021/04/23 03:33:17;;;;;;;57.70;8.35;;;4.30;99.90;;;;;;4975796;28;20034;-84
2021/04/23 03:35:46;;;;;;;61.35;7.15;;;4.20;99.90;;;;;;4974999;28;20389;-84
2021/04/23 03:38:12;;;;;;;41.20;6.82;;;4.20;99.90;;;;;;4985160;28;20030;-84
2021/04/23 03:40:41;;;;;;;82.10;7.85;;;4.20;99.90;;;;;;4993719;28;20446;-84
2021/04/23 03:43:08;;;;;;;73.80;9.05;;;4.20;99.90;;;;;;4994804;28;20093;-84
2021/04/23 03:45:34;;;;;;;47.35;6.55;;;4.10;99.90;;;;;;4994141;28;20054;-85
2021/04/23 03:48:00;;;;;;;57.47;9.23;;;4.10;99.90;;;;;;4994516;28;20031;-85
2021/04/23 03:50:30;;;;;;;49.58;6.57;;;4.10;99.90;;;;;;4993598;28;20019;-85
2021/04/23 03:52:56;;;;;;;59.45;7.40;;;4.10;99.90;;;;;;4994623;28;20161;-84
2021/04/23 03:55:33;;;;;;;51.30;7.47;;;4.20;99.90;;;;;;4994056;28;20019;-84
2021/04/23 03:58:01;;;;;;;58.10;8.15;;;4.20;99.90;;;;;;4994353;28;20118;-83
2021/04/23 04:00:32;;;;;;;64.38;7.43;;;4.10;99.90;;;;;;4994630;28;20023;-84
2021/04/23 04:02:58;;;;;;;67.28;9.38;;;4.10;99.90;;;;;;4979484;28;20081;-85
2021/04/23 04:05:24;;;;;;;54.28;7.70;;;4.20;99.90;;;;;;4989381;28;20023;-84
2021/04/23 04:07:49;;;;;;;60.03;8.43;;;4.10;99.90;;;;;;4997548;28;20395;-84
2021/04/23 04:10:17;;;;;;;64.90;8.50;;;4.10;99.90;;;;;;4993223;28;20496;-83
2021/04/23 04:12:43;;;;;;;47.20;7.50;;;4.10;99.90;;;;;;4993884;28;20045;-83
2021/04/23 04:15:09;;;;;;;59.45;7.28;;;4.10;99.90;;;;;;4992368;28;20479;-84
2021/04/23 04:17:35;;;;;;;61.05;7.82;;;4.10;99.90;;;;;;4993945;28;20034;-84
2021/04/23 04:20:03;;;;;;;53.95;7.72;;;4.10;99.90;;;;;;4978524;28;20035;-83
2021/04/23 04:22:29;;;;;;;57.88;8.02;;;4.10;99.90;;;;;;4974817;28;20027;-84
2021/04/23 04:24:54;;;;;;;43.22;7.25;;;4.10;99.90;;;;;;4972751;28;20550;-85
2021/04/23 04:27:20;;;;;;;57.33;7.30;;;4.10;99.90;;;;;;4980911;28;20414;-84
2021/04/23 04:29:46;;;;;;;66.47;8.68;;;4.10;99.90;;;;;;4992818;28;20478;-84
2021/04/23 04:32:12;;;;;;;52.80;7.22;;;4.10;99.90;;;;;;4993371;28;20085;-83
2021/04/23 04:34:38;;;;;;;50.70;8.68;;;4.00;99.90;;;;;;4991995;28;20022;-84
2021/04/23 04:37:03;;;;;;;64.82;7.75;;;4.00;99.90;;;;;;4992444;28;20040;-84
2021/04/23 04:39:29;;;;;;;59.67;7.43;;;4.00;99.90;;;;;;4994837;28;20054;-85
2021/04/23 04:41:54;;;;;;;61.80;7.25;;;4.00;99.90;;;;;;4993741;28;20026;-84
2021/04/23 04:44:20;;;;;;;57.60;8.30;;;4.00;99.90;;;;;;4993020;28;20072;-84
2021/04/23 04:46:45;;;;;;;65.80;8.25;;;4.00;99.90;;;;;;5008025;28;20034;-83
2021/04/23 04:49:12;;;;;;;54.72;8.43;;;3.90;99.90;;;;;;4993702;28;20039;-85
2021/04/23 04:51:38;;;;;;;55.92;8.20;;;3.90;99.90;;;;;;4993606;28;20541;-84
2021/04/23 04:54:04;;;;;;;55.55;7.93;;;4.00;99.90;;;;;;4992849;28;20042;-84
2021/04/23 04:56:30;;;;;;;70.35;9.73;;;4.00;99.90;;;;;;4991971;28;20030;-84
2021/04/23 04:58:56;;;;;;;54.30;8.07;;;4.00;99.90;;;;;;4974125;28;20037;-84
2021/04/23 05:01:22;;;;;;;76.93;8.55;;;4.10;99.90;;;;;;4990671;28;20031;-84
2021/04/23 05:03:47;;;;;;;61.72;7.95;;;4.10;99.90;;;;;;4992690;28;20041;-84
2021/04/23 05:06:13;;;;;;;61.70;7.93;;;4.10;99.90;;;;;;5007598;28;20150;-85
2021/04/23 05:08:39;;;;;;;65.22;9.27;;;4.20;99.90;;;;;;4993359;28;20097;-84
2021/04/23 05:11:05;;;;;;;76.63;8.93;;;4.20;99.90;;;;;;4993166;28;20548;-84
2021/04/23 05:13:30;;;;;;;63.92;7.68;;;4.30;99.90;;;;;;4991982;28;20076;-84
2021/04/23 05:15:57;;;;;;;76.50;8.38;;;4.40;99.90;;;;;;4992222;28;20170;-85
2021/04/23 05:18:23;;;;;;;48.65;8.50;;;4.50;99.90;;;;;;4992948;28;20081;-84
2021/04/23 05:20:48;;;;;;;46.33;7.07;;;4.60;99.90;;;;;;4991954;28;20030;-85
2021/04/23 05:23:14;;;;;;;68.25;10.10;;;4.70;99.90;;;;;;4992272;28;20426;-84
2021/04/23 05:25:40;;;;;;;69.68;9.18;;;4.80;99.90;;;;;;5003317;28;20077;-84
2021/04/23 05:28:06;;;;;;;48.20;7.03;;;4.90;99.90;;;;;;4980814;28;20030;-85
2021/04/23 05:30:34;;;;;;;66.25;7.38;;;5.00;99.90;;;;;;4991692;28;20505;-85
2021/04/23 05:33:01;;;;;;;42.42;7.22;;;5.10;99.90;;;;;;4988028;28;20027;-84
2021/04/23 05:35:28;;;;;;;67.15;7.93;;;5.20;99.90;;;;;;4972814;28;20078;-85
2021/04/23 05:37:55;;;;;;;46.88;7.38;;;5.30;99.90;;;;;;4991215;28;20117;-83
2021/04/23 05:40:29;;;;;;;48.60;9.00;;;5.30;99.90;;;;;;4992755;28;20065;-83
2021/04/23 05:42:55;;;;;;;44.10;6.72;;;5.40;99.90;;;;;;4991328;28;20517;-85
2021/04/23 05:45:21;;;;;;;47.15;7.55;;;5.50;99.90;;;;;;4992166;28;20038;-84
2021/04/23 05:47:46;;;;;;;45.35;6.38;;;5.50;99.90;;;;;;4987729;28;20446;-85
2021/04/23 05:50:14;;;;;;;49.58;7.15;;;5.60;99.90;;;;;;4973274;28;20097;-85
2021/04/23 05:52:41;;;;;;;42.50;6.13;;;5.70;99.90;;;;;;4973013;28;20085;-85
2021/04/23 05:55:09;;;;;;;48.03;6.38;;;5.80;99.90;;;;;;4987374;28;20495;-85
2021/04/23 05:57:35;;;;;;;38.25;6.78;;;5.80;99.90;;;;;;4983842;28;20034;-85
2021/04/23 06:00:03;;;;;;;47.95;6.28;;;5.90;99.90;;;;;;5007607;28;20037;-84
2021/04/23 06:02:29;;;;;;;47.67;6.40;;;6.00;99.90;;;;;;4981688;28;20035;-84
2021/04/23 06:04:55;;;;;;;70.90;7.95;;;6.10;99.90;;;;;;4978482;28;20030;-86
2021/04/23 06:07:20;;;;;;;62.40;8.10;;;6.20;99.90;;;;;;4986451;28;20026;-85
2021/04/23 06:09:46;;;;;;;55.80;6.75;;;6.20;99.90;;;;;;4988148;28;20037;-85
2021/04/23 06:12:11;;;;;;;45.15;6.93;;;6.30;99.90;;;;;;4988038;28;20467;-86
2021/04/23 06:14:37;;;;;;;53.17;5.88;;;6.40;99.90;;;;;;4988039;28;20505;-83
2021/04/23 06:17:04;;;;;;;50.40;6.65;;;6.50;99.90;;;;;;4988245;28;20045;-87
2021/04/23 06:19:32;;;;;;;33.13;5.40;;;6.50;99.90;;;;;;4987167;28;20077;-85
2021/04/23 06:21:59;;;;;;;38.70;5.78;;;6.60;99.90;;;;;;4988558;28;20024;-85
2021/04/23 06:24:25;;;;;;;42.72;5.03;;;6.70;99.90;;;;;;4986305;28;20058;-87
2021/04/23 06:26:51;;;;;;;35.83;6.20;;;6.90;99.90;;;;;;4985836;28;20494;-85
2021/04/23 06:29:16;;;;;;;43.90;6.28;;;7.00;99.90;;;;;;4982113;28;20027;-86
2021/04/23 06:31:43;;;;;;;42.70;5.72;;;7.00;99.90;;;;;;4988495;28;20093;-84
2021/04/23 06:34:08;;;;;;;35.78;6.78;;;7.10;99.90;;;;;;4988462;28;21603;-88
2021/04/23 06:36:34;;;;;;;43.88;6.85;;;7.10;99.90;;;;;;4992079;28;20040;-89
2021/04/23 06:38:59;;;;;;;24.65;5.13;;;7.10;99.90;;;;;;4992221;28;20038;-86
2021/04/23 06:41:25;;;;;;;21.10;4.57;;;7.20;99.90;;;;;;4993533;28;20038;-86
2021/04/23 06:43:50;;;;;;;26.02;5.05;;;7.40;99.90;;;;;;4991375;28;20402;-86
2021/04/23 06:46:16;;;;;;;29.70;4.18;;;7.50;99.90;;;;;;4992741;28;20364;-87
2021/04/23 06:48:46;;;;;;;27.63;4.60;;;7.40;99.90;;;;;;4992814;28;20026;-85
2021/04/23 06:51:12;;;;;;;37.42;4.97;;;7.60;99.90;;;;;;4992927;28;20518;-85
2021/04/23 06:53:37;;;;;;;44.63;6.43;;;7.50;99.90;;;;;;4992253;28;20054;-86
2021/04/23 06:56:04;;;;;;;24.85;4.68;;;7.60;99.90;;;;;;4992462;28;20539;-86
2021/04/23 06:58:30;;;;;;;19.98;3.80;;;7.80;99.90;;;;;;4986824;28;20105;-85
2021/04/23 07:00:56;;;;;;;22.63;4.22;;;7.70;99.90;;;;;;4991833;28;20443;-87
2021/04/23 07:03:21;;;;;;;28.05;4.13;;;7.70;99.90;;;;;;4991317;28;20030;-87
2021/04/23 07:05:47;;;;;;;33.00;4.15;;;7.90;99.90;;;;;;4990823;28;20033;-84
2021/04/23 07:08:13;;;;;;;23.88;4.47;;;8.00;99.90;;;;;;4990543;28;20064;-86
2021/04/23 07:10:41;;;;;;;29.60;5.88;;;8.10;99.90;;;;;;4992157;28;20102;-86
2021/04/23 07:13:07;;;;;;;19.30;3.67;;;8.20;99.90;;;;;;4992794;28;20105;-86
2021/04/23 07:15:34;;;;;;;35.28;4.20;;;8.30;99.90;;;;;;4991791;28;20106;-87
2021/04/23 07:18:01;;;;;;;25.15;4.30;;;8.40;99.90;;;;;;4992152;28;20057;-86
2021/04/23 07:20:27;;;;;;;25.88;3.53;;;8.40;99.90;;;;;;4991995;28;20112;-84
2021/04/23 07:22:53;;;;;;;23.30;3.90;;;8.40;99.90;;;;;;4992215;28;20105;-86
2021/04/23 07:25:20;;;;;;;14.77;3.30;;;8.50;99.90;;;;;;4990631;28;20022;-86
2021/04/23 07:27:45;;;;;;;29.50;5.03;;;8.70;99.90;;;;;;4990724;28;20511;-85
2021/04/23 07:30:21;;;;;;;16.80;3.72;;;8.80;99.90;;;;;;4991281;28;20122;-86
2021/04/23 07:32:47;;;;;;;26.90;4.88;;;8.90;99.90;;;;;;4990863;28;20026;-84
2021/04/23 07:35:14;;;;;;;21.45;3.65;;;9.20;99.90;;;;;;4990681;28;20664;-85
2021/04/23 07:37:40;;;;;;;27.33;4.40;;;9.00;99.90;;;;;;4994858;28;20069;-86
2021/04/23 07:40:09;;;;;;;32.60;4.03;;;9.30;99.90;;;;;;4995212;28;20027;-84
2021/04/23 07:42:34;;;;;;;15.75;3.35;;;9.40;99.90;;;;;;4993547;28;20037;-84
2021/04/23 07:45:01;;;;;;;27.08;3.60;;;9.50;99.90;;;;;;5009603;28;20113;-85
2021/04/23 07:47:28;;;;;;;21.10;3.72;;;9.30;99.90;;;;;;4998612;28;20496;-86
2021/04/23 07:49:53;;;;;;;15.50;3.08;;;9.20;99.90;;;;;;4974165;28;20117;-86
2021/04/23 07:52:19;;;;;;;20.25;3.25;;;9.30;99.90;;;;;;4975795;28;20138;-85
2021/04/23 07:54:45;;;;;;;21.60;3.70;;;9.60;99.90;;;;;;4994140;28;20034;-85
2021/04/23 07:57:11;;;;;;;25.00;4.22;;;9.80;99.90;;;;;;4994930;28;20430;-85
2021/04/23 07:59:38;;;;;;;25.60;3.85;;;9.80;99.90;;;;;;4994761;28;20037;-86
2021/04/23 08:02:04;;;;;;;19.20;3.33;;;9.70;99.90;;;;;;4994347;28;20038;-85
2021/04/23 08:04:30;;;;;;;18.35;3.40;;;9.80;99.90;;;;;;4992913;28;20027;-86
2021/04/23 08:06:56;;;;;;;16.75;2.97;;;9.70;99.90;;;;;;4993419;28;20026;-85
2021/04/23 08:09:22;;;;;;;29.13;3.63;;;9.70;99.90;;;;;;4975758;28;20085;-81
2021/04/23 08:11:47;;;;;;;16.33;2.90;;;9.70;99.90;;;;;;4975091;28;20023;-84
2021/04/23 08:14:13;;;;;;;18.80;3.25;;;9.80;99.90;;;;;;4982679;28;20149;-90
2021/04/23 08:16:38;;;;;;;25.85;2.97;;;10.00;99.90;;;;;;4991114;28;20030;-86
2021/04/23 08:19:04;;;;;;;22.65;4.22;;;10.20;99.90;;;;;;4990350;28;20027;-87
2021/04/23 08:21:29;;;;;;;23.20;3.63;;;10.20;99.90;;;;;;4974069;28;20031;-88
2021/04/23 08:23:55;;;;;;;22.55;3.42;;;10.60;99.90;;;;;;4993814;28;20042;-87
2021/04/23 08:26:22;;;;;;;17.80;2.70;;;10.80;99.90;;;;;;4993377;28;20081;-87
2021/04/23 08:28:48;;;;;;;15.95;2.95;;;10.70;99.90;;;;;;4993817;28;20164;-88
2021/04/23 08:31:14;;;;;;;13.95;2.97;;;10.80;99.90;;;;;;4993386;28;20038;-90
2021/04/23 08:33:40;;;;;;;24.35;4.20;;;10.70;99.90;;;;;;5009875;28;20068;-87
2021/04/23 08:36:06;;;;;;;17.67;2.78;;;10.90;99.90;;;;;;4991677;28;20101;-86
2021/04/23 08:38:32;;;;;;;18.83;2.63;;;11.00;99.90;;;;;;5009617;28;20030;-86
2021/04/23 08:40:57;;;;;;;22.35;3.47;;;11.20;99.90;;;;;;4994406;28;20570;-84
2021/04/23 08:43:25;;;;;;;18.40;3.60;;;11.10;99.90;;;;;;4993185;28;20030;-84
2021/04/23 08:45:50;;;;;;;17.23;2.58;;;11.00;99.90;;;;;;4983819;28;20090;-86
2021/04/23 08:48:16;;;;;;;12.15;2.58;;;11.00;99.90;;;;;;4989833;28;20018;-87
2021/04/23 08:50:43;;;;;;;22.63;3.47;;;11.00;99.90;;;;;;5004388;28;20034;-84
2021/04/23 08:53:09;;;;;;;20.20;3.22;;;11.00;99.90;;;;;;4993803;28;20030;-85
2021/04/23 08:55:35;;;;;;;20.38;4.05;;;10.80;99.90;;;;;;4992429;28;20032;-86
2021/04/23 08:58:09;;;;;;;17.63;3.58;;;11.30;99.90;;;;;;4991779;28;20109;-85
2021/04/23 09:00:34;;;;;;;20.77;3.88;;;11.20;99.90;;;;;;4992783;28;20038;-87
2021/04/23 09:03:00;;;;;;;19.63;2.83;;;11.30;99.90;;;;;;4994068;28;20034;-87
2021/04/23 09:05:26;;;;;;;11.63;2.55;;;11.40;99.90;;;;;;4986199;28;20064;-86
2021/04/23 09:08:03;;;;;;;19.95;3.80;;;11.40;99.90;;;;;;4993606;28;20023;-86
2021/04/23 09:10:29;;;;;;;28.23;3.40;;;11.40;99.90;;;;;;4992930;28;20033;-87
2021/04/23 09:13:08;;;;;;;35.42;5.07;;;11.10;99.90;;;;;;5009715;28;20023;-88
2021/04/23 09:15:34;;;;;;;30.65;4.00;;;11.50;99.90;;;;;;4992942;28;20053;-86
2021/04/23 09:18:12;;;;;;;15.32;3.20;;;11.60;99.90;;;;;;4993657;28;20037;-87
2021/04/23 09:20:45;;;;;;;15.32;3.55;;;11.60;99.90;;;;;;4992969;28;20022;-84
2021/04/23 09:23:22;;;;;;;19.25;3.63;;;11.60;99.90;;;;;;4992585;28;20038;-85
2021/04/23 09:25:48;;;;;;;27.27;3.10;;;11.60;99.90;;;;;;4988253;28;20066;-86
2021/04/23 09:28:15;;;;;;;20.02;4.20;;;11.50;99.90;;;;;;4972844;28;20081;-86
2021/04/23 09:30:42;;;;;;;19.60;3.55;;;11.60;99.90;;;;;;4977687;28;20372;-84
2021/04/23 09:33:27;;;;;;;25.58;3.08;;;11.40;99.90;;;;;;4988183;28;20026;-83
2021/04/23 09:35:53;;;;;;;19.30;3.58;;;11.60;99.90;;;;;;4982971;28;20034;-82
2021/04/23 09:38:19;;;;;;;27.17;3.35;;;11.70;99.90;;;;;;4992032;28;20537;-84
2021/04/23 09:40:45;;;;;;;14.60;2.92;;;11.70;99.90;;;;;;4987007;28;20042;-84
2021/04/23 09:43:11;;;;;;;32.67;4.10;;;11.80;99.90;;;;;;4985346;28;20042;-82
2021/04/23 09:45:54;;;;;;;19.60;3.35;;;12.00;99.90;;;;;;4985704;28;20108;-84
2021/04/23 09:48:22;;;;;;;29.83;3.20;;;11.70;99.90;;;;;;4985218;28;20561;-84
2021/04/23 09:50:53;;;;;;;15.38;2.92;;;11.60;99.90;;;;;;4988787;28;20030;-84
2021/04/23 09:53:29;;;;;;;20.00;3.00;;;11.40;99.90;;;;;;4989182;28;20022;-83
2021/04/23 09:55:55;;;;;;;16.95;2.70;;;11.40;99.90;;;;;;4985615;28;20031;-83
2021/04/23 09:58:21;;;;;;;19.73;3.20;;;11.60;99.90;;;;;;4986529;28;20023;-84
2021/04/23 10:00:57;;;;;;;28.67;3.58;;;11.80;99.90;;;;;;4988257;28;20048;-82
2021/04/23 10:03:31;;;;;;;23.50;4.68;;;11.80;99.90;;;;;;4988508;28;20030;-82
2021/04/23 10:05:57;;;;;;;14.50;2.83;;;11.90;99.90;;;;;;4986748;28;20033;-83
2021/04/23 10:08:28;;;;;;;20.20;2.97;;;11.80;99.90;;;;;;4987343;28;20022;-83
2021/04/23 10:10:58;;;;;;;23.23;2.97;;;12.20;99.90;;;;;;4988525;28;20030;-82
2021/04/23 10:13:32;;;;;;;17.33;3.05;;;12.10;99.90;;;;;;4989972;28;20076;-82
2021/04/23 10:15:58;;;;;;;;;;;12.00;99.90;;;;;;4988976;28;20022;-82
2021/04/23 10:18:24;;;;;;;12.85;2.20;;;11.60;99.90;;;;;;4990090;28;19909;-82
2021/04/23 10:20:52;;;;;;;17.65;3.13;;;11.80;99.90;;;;;;4980221;28;20041;-82
2021/04/23 10:23:20;;;;;;;13.32;2.47;;;11.60;99.90;;;;;;4989951;28;20029;-83
2021/04/23 10:25:48;;;;;;;17.45;2.60;;;11.80;99.90;;;;;;4987295;28;20033;-83
2021/04/23 10:28:19;;;;;;;14.68;2.60;;;12.10;99.90;;;;;;4985519;28;20638;-83
2021/04/23 10:30:47;;;;;;;12.68;2.67;;;12.30;99.90;;;;;;4988228;28;20022;-81
2021/04/23 10:33:15;;;;;;;24.65;3.08;;;12.50;99.90;;;;;;4990519;28;20041;-83
2021/04/23 10:35:43;;;;;;;8.57;2.20;;;12.10;99.90;;;;;;4986310;28;20030;-82
2021/04/23 10:38:11;;;;;;;13.30;2.28;;;12.20;99.90;;;;;;4988272;28;20038;-82
2021/04/23 10:40:42;;;;;;;12.73;2.72;;;12.30;99.90;;;;;;4986489;28;20062;-82
2021/04/23 10:43:09;;;;;;;10.15;1.90;;;12.40;99.90;;;;;;4987036;28;20077;-81
2021/04/23 10:46:15;;;;;;;15.15;2.63;;;12.40;99.90;;;;;;4986355;28;20038;-82
2021/04/23 10:48:44;;;;;;;22.05;3.20;;;12.40;99.90;;;;;;4986576;28;20042;-82
2021/04/23 10:51:24;;;;;;;17.83;3.08;;;12.60;99.90;;;;;;4983889;28;20029;-82
2021/04/23 10:53:52;;;;;;;10.68;2.97;;;12.70;99.90;;;;;;4988075;28;20026;-82
2021/04/23 10:56:33;;;;;;;21.00;3.20;;;12.40;99.90;;;;;;5006714;28;20513;-82
2021/04/23 10:59:05;;;;;;;19.98;4.18;;;12.20;99.90;;;;;;4991947;28;20058;-82
2021/04/23 11:01:36;;;;;;;17.38;3.03;;;12.50;99.90;;;;;;4992173;28;20097;-82
2021/04/23 11:04:04;;;;;;;13.02;3.05;;;12.70;99.90;;;;;;4990793;28;20475;-82
2021/04/23 11:06:41;;;;;;;28.33;9.75;;;12.70;99.90;;;;;;4990546;28;20085;-82
2021/04/23 11:09:16;;;;;;;26.67;3.83;;;12.60;99.90;;;;;;5006982;28;20553;-82
2021/04/23 11:11:43;;;;;;;14.18;4.13;;;12.70;99.90;;;;;;4992059;28;20451;-82
2021/04/23 11:14:23;;;;;;;16.65;4.43;;;12.70;99.90;;;;;;4991251;28;20422;-82
2021/04/23 11:16:51;;;;;;;15.63;4.18;;;12.70;99.90;;;;;;4971596;28;20054;-83
2021/04/23 11:19:20;;;;;;;19.17;4.65;;;12.80;99.90;;;;;;4990388;28;20026;-82
2021/04/23 11:21:47;;;;;;;13.60;4.18;;;12.70;99.90;;;;;;4992891;28;20054;-83
2021/04/23 11:24:20;;;;;;;20.67;3.50;;;12.60;99.90;;;;;;4993739;28;20558;-82
2021/04/23 11:27:04;;;;;;;17.33;4.88;;;12.60;99.90;;;;;;4994389;28;20104;-83
2021/04/23 11:29:41;;;;;;;20.20;3.78;;;12.70;99.90;;;;;;4995585;28;20562;-82
2021/04/23 11:32:23;;;;;;;15.55;3.75;;;12.70;99.90;;;;;;4993946;28;20034;-83
2021/04/23 11:34:52;;;;;;;15.18;4.15;;;12.90;99.90;;;;;;4994126;28;20030;-83
2021/04/23 11:37:42;;;;;;;13.98;3.97;;;13.10;99.90;;;;;;4987432;28;20081;-83
2021/04/23 11:40:20;;;;;;;14.98;3.25;;;12.90;99.90;;;;;;4994226;28;20560;-83
2021/04/23 11:42:50;;;;;;;11.73;3.05;;;13.30;99.90;;;;;;4994744;28;20042;-83
2021/04/23 11:45:26;;;;;;;9.70;3.00;;;13.50;99.90;;;;;;4994158;28;20545;-83
2021/04/23 11:47:51;;;;;;;20.63;4.47;;;13.60;99.90;;;;;;4989988;28;20031;-82
2021/04/23 11:50:29;;;;;;;26.90;3.20;;;13.20;99.90;;;;;;4975886;28;20074;-82
2021/04/23 11:53:08;;;;;;;16.13;3.35;;;13.30;99.90;;;;;;4975425;28;20015;-83
2021/04/23 11:55:40;;;;;;;15.63;3.58;;;13.40;99.90;;;;;;4974801;28;20027;-83
2021/04/23 11:58:07;;;;;;;19.83;3.72;;;13.60;99.90;;;;;;4976621;28;20035;-83
2021/04/23 12:00:33;;;;;;;9.15;3.35;;;13.90;99.90;;;;;;4975339;28;20035;-83
2021/04/23 12:03:04;;;;;;;14.70;3.25;;;14.00;99.90;;;;;;4975227;28;20019;-83
2021/04/23 12:05:41;;;;;;;13.48;2.72;;;13.80;99.90;;;;;;4987039;28;20486;-82
2021/04/23 12:08:20;;;;;;;18.00;3.42;;;14.10;99.90;;;;;;4993223;28;20038;-83
2021/04/23 12:10:48;;;;;;;16.42;4.10;;;14.10;99.90;;;;;;4995864;28;20096;-83
2021/04/23 12:13:20;;;;;;;24.17;3.88;;;14.40;99.90;;;;;;4993297;28;20122;-82
2021/04/23 12:15:49;;;;;;;12.95;3.42;;;14.50;99.90;;;;;;4982732;28;20031;-82
2021/04/23 12:18:16;;;;;;;10.50;2.97;;;14.30;99.90;;;;;;4974829;28;20031;-82
2021/04/23 12:20:49;;;;;;;21.00;4.45;;;14.50;99.90;;;;;;4984508;28;20031;-83
2021/04/23 12:23:23;;;;;;;19.02;3.90;;;14.70;99.90;;;;;;4989869;28;20057;-82
2021/04/23 12:25:51;;;;;;;16.70;3.20;;;14.80;99.90;;;;;;4974731;28;20085;-82
2021/04/23 12:28:23;;;;;;;15.52;3.92;;;14.40;99.90;;;;;;4973649;28;20008;-82
2021/04/23 12:30:59;;;;;;;15.20;4.07;;;14.20;99.90;;;;;;4993886;28;20034;-82
2021/04/23 12:33:37;;;;;;;18.48;3.90;;;14.90;99.90;;;;;;4993799;28;20018;-83
2021/04/23 12:36:11;;;;;;;13.88;3.75;;;14.90;99.90;;;;;;4992933;28;20031;-81
2021/04/23 12:38:39;;;;;;;26.38;4.32;;;14.70;99.90;;;;;;4994285;28;20023;-83
2021/04/23 12:41:28;;;;;;;13.52;3.70;;;14.70;99.90;;;;;;4990697;28;20387;-83
2021/04/23 12:43:55;;;;;;;16.70;3.92;;;14.60;99.90;;;;;;4989015;28;20455;-83
2021/04/23 12:46:23;;;;;;;11.60;3.90;;;14.50;99.90;;;;;;4973142;28;20027;-82
2021/04/23 12:49:19;;;;;;;13.65;4.53;;;14.30;99.90;;;;;;4974662;28;20026;-83